sensor_id;sensor_type;location;lat;lon;timestamp;temperature;humidity
45765;DHT22;31474;45.332;10.230;2023-03-12T00:02:01;12.80;99.90
45765;DHT22;31474;45.332;10.230;2023-03-12T00:04:26;12.80;99.90
45765;DHT22;31474;45.332;10.230;2023-03-12T00:06:52;12.90;99.90
45765;DHT22;31474;45.332;10.230;2023-03-12T00:09:18;12.90;99.90
45765;DHT22;31474;45.332;10.230;2023-03-12T00:11:43;12.80;99.90
45765;DHT22;31474;45.332;10.230;2023-03-12T00:14:09;12.80;99.90
45765;DHT22;31474;45.332;10.230;2023-03-12T00:16:35;12.70;99.90
45765;DHT22;31474;45.332;10.230;2023-03-12T00:19:00;12.70;99.90
45765;DHT22;31474;45.332;10.230;2023-03-12T00:21:26;12.60;99.90
45765;DHT22;31474;45.332;10.230;2023-03-12T00:23:52;12.50;99.90
45765;DHT22;31474;45.332;10.230;2023-03-12T00:26:19;12.40;99.90
45765;DHT22;31474;45.332;10.230;2023-03-12T00:28:46;12.40;99.90
45765;DHT22;31474;45.332;10.230;2023-03-12T00:31:24;12.40;99.90
45765;DHT22;31474;45.332;10.230;2023-03-12T00:33:52;12.30;99.90
45765;DHT22;31474;45.332;10.230;2023-03-12T00:36:19;12.30;99.90
45765;DHT22;31474;45.332;10.230;2023-03-12T00:38:45;12.30;99.90
45765;DHT22;31474;45.332;10.230;2023-03-12T00:41:11;12.20;99.90
45765;DHT22;31474;45.332;10.230;2023-03-12T00:43:37;12.20;99.90
45765;DHT22;31474;45.332;10.230;2023-03-12T00:46:03;12.20;99.90
45765;DHT22;31474;45.332;10.230;2023-03-12T00:48:28;12.10;99.90
45765;DHT22;31474;45.332;10.230;2023-03-12T00:50:54;12.00;99.90
45765;DHT22;31474;45.332;10.230;2023-03-12T00:53:19;12.10;99.90
45765;DHT22;31474;45.332;10.230;2023-03-12T00:55:45;12.00;99.90
45765;DHT22;31474;45.332;10.230;2023-03-12T00:58:11;12.00;99.90
45765;DHT22;31474;45.332;10.230;2023-03-12T01:00:37;11.90;99.90
45765;DHT22;31474;45.332;10.230;2023-03-12T01:03:02;11.90;99.90
45765;DHT22;31474;45.332;10.230;2023-03-12T01:05:28;11.90;99.90
45765;DHT22;31474;45.332;10.230;2023-03-12T01:07:54;11.90;99.90
45765;DHT22;31474;45.332;10.230;2023-03-12T01:10:20;11.90;99.90
45765;DHT22;31474;45.332;10.230;2023-03-12T01:12:46;11.80;99.90
45765;DHT22;31474;45.332;10.230;2023-03-12T01:15:14;11.80;99.90
45765;DHT22;31474;45.332;10.230;2023-03-12T01:17:40;11.70;99.90
45765;DHT22;31474;45.332;10.230;2023-03-12T01:20:06;11.70;99.90
45765;DHT22;31474;45.332;10.230;2023-03-12T01:22:33;11.70;99.90
45765;DHT22;31474;45.332;10.230;2023-03-12T01:24:59;11.80;99.90
45765;DHT22;31474;45.332;10.230;2023-03-12T01:27:24;11.90;99.90
45765;DHT22;31474;45.332;10.230;2023-03-12T01:29:50;11.90;99.90
45765;DHT22;31474;45.332;10.230;2023-03-12T01:32:16;11.80;99.90
45765;DHT22;31474;45.332;10.230;2023-03-12T01:34:42;11.80;99.90
45765;DHT22;31474;45.332;10.230;2023-03-12T01:37:08;11.60;99.90
45765;DHT22;31474;45.332;10.230;2023-03-12T01:39:34;11.60;99.90
45765;DHT22;31474;45.332;10.230;2023-03-12T01:41:59;11.50;99.90
45765;DHT22;31474;45.332;10.230;2023-03-12T01:44:26;11.50;99.90
45765;DHT22;31474;45.332;10.230;2023-03-12T01:46:52;11.50;99.90
45765;DHT22;31474;45.332;10.230;2023-03-12T01:49:28;11.60;99.90
45765;DHT22;31474;45.332;10.230;2023-03-12T01:54:42;11.50;99.90
45765;DHT22;31474;45.332;10.230;2023-03-12T01:57:11;11.40;99.90
45765;DHT22;31474;45.332;10.230;2023-03-12T01:59:48;11.40;99.90
45765;DHT22;31474;45.332;10.230;2023-03-12T02:02:15;11.30;99.90
45765;DHT22;31474;45.332;10.230;2023-03-12T02:04:42;11.30;99.90
45765;DHT22;31474;45.332;10.230;2023-03-12T02:07:15;11.30;99.90
45765;DHT22;31474;45.332;10.230;2023-03-12T02:09:43;11.20;99.90
45765;DHT22;31474;45.332;10.230;2023-03-12T02:12:09;11.10;99.90
45765;DHT22;31474;45.332;10.230;2023-03-12T02:14:35;10.90;99.90
45765;DHT22;31474;45.332;10.230;2023-03-12T02:17:01;10.90;99.90
45765;DHT22;31474;45.332;10.230;2023-03-12T02:22:11;11.10;99.90
45765;DHT22;31474;45.332;10.230;2023-03-12T02:24:57;11.20;99.90
45765;DHT22;31474;45.332;10.230;2023-03-12T02:27:32;11.20;99.90
45765;DHT22;31474;45.332;10.230;2023-03-12T02:29:59;11.30;99.90
45765;DHT22;31474;45.332;10.230;2023-03-12T02:32:45;11.20;99.90
45765;DHT22;31474;45.332;10.230;2023-03-12T02:35:13;11.30;99.90
45765;DHT22;31474;45.332;10.230;2023-03-12T02:37:50;11.30;99.90
45765;DHT22;31474;45.332;10.230;2023-03-12T02:40:41;11.20;99.90
45765;DHT22;31474;45.332;10.230;2023-03-12T02:43:10;11.20;99.90
45765;DHT22;31474;45.332;10.230;2023-03-12T02:45:37;11.30;99.90
45765;DHT22;31474;45.332;10.230;2023-03-12T02:48:07;11.30;99.90
45765;DHT22;31474;45.332;10.230;2023-03-12T02:50:33;11.40;99.90
45765;DHT22;31474;45.332;10.230;2023-03-12T02:52:58;11.30;99.90
45765;DHT22;31474;45.332;10.230;2023-03-12T02:55:24;11.30;99.90
45765;DHT22;31474;45.332;10.230;2023-03-12T02:57:50;11.30;99.90
45765;DHT22;31474;45.332;10.230;2023-03-12T03:00:16;11.30;99.90
45765;DHT22;31474;45.332;10.230;2023-03-12T03:02:42;11.30;99.90
45765;DHT22;31474;45.332;10.230;2023-03-12T03:05:09;11.30;99.90
45765;DHT22;31474;45.332;10.230;2023-03-12T03:07:35;11.40;99.90
45765;DHT22;31474;45.332;10.230;2023-03-12T03:10:01;11.30;99.90
45765;DHT22;31474;45.332;10.230;2023-03-12T03:12:33;11.30;99.90
45765;DHT22;31474;45.332;10.230;2023-03-12T03:14:59;11.40;99.90
45765;DHT22;31474;45.332;10.230;2023-03-12T03:17:25;11.40;99.90
45765;DHT22;31474;45.332;10.230;2023-03-12T03:19:52;11.40;99.90
45765;DHT22;31474;45.332;10.230;2023-03-12T03:22:18;11.30;99.90
45765;DHT22;31474;45.332;10.230;2023-03-12T03:24:44;11.30;99.90
45765;DHT22;31474;45.332;10.230;2023-03-12T03:27:10;11.20;99.90
45765;DHT22;31474;45.332;10.230;2023-03-12T03:29:36;11.10;99.90
45765;DHT22;31474;45.332;10.230;2023-03-12T03:32:02;11.00;99.90
45765;DHT22;31474;45.332;10.230;2023-03-12T03:34:28;11.00;99.90
45765;DHT22;31474;45.332;10.230;2023-03-12T03:36:53;10.90;99.90
45765;DHT22;31474;45.332;10.230;2023-03-12T03:39:19;11.00;99.90
45765;DHT22;31474;45.332;10.230;2023-03-12T03:41:45;10.90;99.90
45765;DHT22;31474;45.332;10.230;2023-03-12T03:44:12;10.90;99.90
45765;DHT22;31474;45.332;10.230;2023-03-12T03:46:38;10.90;99.90
45765;DHT22;31474;45.332;10.230;2023-03-12T03:49:04;10.70;99.90
45765;DHT22;31474;45.332;10.230;2023-03-12T03:51:30;10.80;99.90
45765;DHT22;31474;45.332;10.230;2023-03-12T03:53:58;10.80;99.90
45765;DHT22;31474;45.332;10.230;2023-03-12T03:56:25;10.80;99.90
45765;DHT22;31474;45.332;10.230;2023-03-12T03:58:50;10.80;99.90
45765;DHT22;31474;45.332;10.230;2023-03-12T04:01:16;10.80;99.90
45765;DHT22;31474;45.332;10.230;2023-03-12T04:03:42;10.90;99.90
45765;DHT22;31474;45.332;10.230;2023-03-12T04:06:08;10.90;99.90
45765;DHT22;31474;45.332;10.230;2023-03-12T04:08:35;10.80;99.90
45765;DHT22;31474;45.332;10.230;2023-03-12T04:11:13;10.70;99.90
45765;DHT22;31474;45.332;10.230;2023-03-12T04:13:39;10.60;99.90
45765;DHT22;31474;45.332;10.230;2023-03-12T04:16:05;10.50;99.90
45765;DHT22;31474;45.332;10.230;2023-03-12T04:18:31;10.40;99.90
45765;DHT22;31474;45.332;10.230;2023-03-12T04:20:57;10.30;99.90
45765;DHT22;31474;45.332;10.230;2023-03-12T04:23:23;10.30;99.90
45765;DHT22;31474;45.332;10.230;2023-03-12T04:26:09;10.20;99.90
45765;DHT22;31474;45.332;10.230;2023-03-12T04:28:35;10.00;99.90
45765;DHT22;31474;45.332;10.230;2023-03-12T04:31:04;10.10;99.90
45765;DHT22;31474;45.332;10.230;2023-03-12T04:33:32;10.10;99.90
45765;DHT22;31474;45.332;10.230;2023-03-12T04:35:58;10.00;99.90
45765;DHT22;31474;45.332;10.230;2023-03-12T04:38:25;10.00;99.90
45765;DHT22;31474;45.332;10.230;2023-03-12T04:41:04;10.00;99.90
45765;DHT22;31474;45.332;10.230;2023-03-12T04:43:30;9.90;99.90
45765;DHT22;31474;45.332;10.230;2023-03-12T04:45:56;10.00;99.90
45765;DHT22;31474;45.332;10.230;2023-03-12T04:48:23;10.00;99.90
45765;DHT22;31474;45.332;10.230;2023-03-12T04:50:49;9.90;99.90
45765;DHT22;31474;45.332;10.230;2023-03-12T04:53:14;9.90;99.90
45765;DHT22;31474;45.332;10.230;2023-03-12T04:55:41;9.90;99.90
45765;DHT22;31474;45.332;10.230;2023-03-12T04:58:15;9.90;99.90
45765;DHT22;31474;45.332;10.230;2023-03-12T05:00:41;9.90;99.90
45765;DHT22;31474;45.332;10.230;2023-03-12T05:03:07;9.90;99.90
45765;DHT22;31474;45.332;10.230;2023-03-12T05:05:33;9.80;99.90
45765;DHT22;31474;45.332;10.230;2023-03-12T05:08:00;9.80;99.90
45765;DHT22;31474;45.332;10.230;2023-03-12T05:10:26;9.80;99.90
45765;DHT22;31474;45.332;10.230;2023-03-12T05:12:52;9.80;99.90
45765;DHT22;31474;45.332;10.230;2023-03-12T05:15:18;9.70;99.90
45765;DHT22;31474;45.332;10.230;2023-03-12T05:17:44;9.60;99.90
45765;DHT22;31474;45.332;10.230;2023-03-12T05:20:11;9.50;99.90
45765;DHT22;31474;45.332;10.230;2023-03-12T05:22:37;9.50;99.90
45765;DHT22;31474;45.332;10.230;2023-03-12T05:25:04;9.50;99.90
45765;DHT22;31474;45.332;10.230;2023-03-12T05:27:30;9.50;99.90
45765;DHT22;31474;45.332;10.230;2023-03-12T05:29:56;9.50;99.90
45765;DHT22;31474;45.332;10.230;2023-03-12T05:32:21;9.60;99.90
45765;DHT22;31474;45.332;10.230;2023-03-12T05:34:47;9.60;99.90
45765;DHT22;31474;45.332;10.230;2023-03-12T05:37:13;9.50;99.90
45765;DHT22;31474;45.332;10.230;2023-03-12T05:39:38;9.60;99.90
45765;DHT22;31474;45.332;10.230;2023-03-12T05:42:12;9.60;99.90
45765;DHT22;31474;45.332;10.230;2023-03-12T05:44:37;9.60;99.90
45765;DHT22;31474;45.332;10.230;2023-03-12T05:47:03;9.50;99.90
45765;DHT22;31474;45.332;10.230;2023-03-12T05:49:29;9.50;99.90
45765;DHT22;31474;45.332;10.230;2023-03-12T05:51:55;9.40;99.90
45765;DHT22;31474;45.332;10.230;2023-03-12T05:54:21;9.40;99.90
45765;DHT22;31474;45.332;10.230;2023-03-12T05:56:47;9.50;99.90
45765;DHT22;31474;45.332;10.230;2023-03-12T05:59:13;9.50;99.90
45765;DHT22;31474;45.332;10.230;2023-03-12T06:01:39;9.50;99.90
45765;DHT22;31474;45.332;10.230;2023-03-12T06:04:05;9.60;99.90
45765;DHT22;31474;45.332;10.230;2023-03-12T06:06:32;9.70;99.90
45765;DHT22;31474;45.332;10.230;2023-03-12T06:08:58;9.60;99.80
45765;DHT22;31474;45.332;10.230;2023-03-12T06:11:26;9.60;99.80
45765;DHT22;31474;45.332;10.230;2023-03-12T06:13:52;9.70;99.90
45765;DHT22;31474;45.332;10.230;2023-03-12T06:16:20;9.80;99.80
45765;DHT22;31474;45.332;10.230;2023-03-12T06:18:46;9.90;99.90
45765;DHT22;31474;45.332;10.230;2023-03-12T06:21:17;10.00;99.80
45765;DHT22;31474;45.332;10.230;2023-03-12T06:23:43;10.10;99.50
45765;DHT22;31474;45.332;10.230;2023-03-12T06:26:10;10.10;99.30
45765;DHT22;31474;45.332;10.230;2023-03-12T06:28:56;10.20;99.30
45765;DHT22;31474;45.332;10.230;2023-03-12T06:31:22;10.20;99.10
45765;DHT22;31474;45.332;10.230;2023-03-12T06:33:48;10.30;99.10
45765;DHT22;31474;45.332;10.230;2023-03-12T06:36:13;10.40;99.00
45765;DHT22;31474;45.332;10.230;2023-03-12T06:38:39;10.40;98.90
45765;DHT22;31474;45.332;10.230;2023-03-12T06:41:11;10.60;99.00
45765;DHT22;31474;45.332;10.230;2023-03-12T06:43:38;10.80;98.70
45765;DHT22;31474;45.332;10.230;2023-03-12T06:46:05;11.00;98.70
45765;DHT22;31474;45.332;10.230;2023-03-12T06:48:33;11.10;98.20
45765;DHT22;31474;45.332;10.230;2023-03-12T06:51:04;11.20;98.30
45765;DHT22;31474;45.332;10.230;2023-03-12T06:53:30;11.30;97.90
45765;DHT22;31474;45.332;10.230;2023-03-12T06:55:56;11.20;97.40
45765;DHT22;31474;45.332;10.230;2023-03-12T06:58:22;11.20;98.00
45765;DHT22;31474;45.332;10.230;2023-03-12T07:00:47;11.40;98.00
45765;DHT22;31474;45.332;10.230;2023-03-12T07:03:13;11.50;97.50
45765;DHT22;31474;45.332;10.230;2023-03-12T07:05:39;11.60;98.00
45765;DHT22;31474;45.332;10.230;2023-03-12T07:08:07;11.80;97.70
45765;DHT22;31474;45.332;10.230;2023-03-12T07:10:33;11.90;97.80
45765;DHT22;31474;45.332;10.230;2023-03-12T07:12:59;12.10;97.80
45765;DHT22;31474;45.332;10.230;2023-03-12T07:15:24;12.10;97.30
45765;DHT22;31474;45.332;10.230;2023-03-12T07:17:50;12.10;97.20
45765;DHT22;31474;45.332;10.230;2023-03-12T07:20:16;12.20;97.70
45765;DHT22;31474;45.332;10.230;2023-03-12T07:22:41;12.30;97.50
45765;DHT22;31474;45.332;10.230;2023-03-12T07:25:08;12.40;97.50
45765;DHT22;31474;45.332;10.230;2023-03-12T07:27:34;12.60;97.60
45765;DHT22;31474;45.332;10.230;2023-03-12T07:29:59;12.80;97.00
45765;DHT22;31474;45.332;10.230;2023-03-12T07:32:25;13.00;97.50
45765;DHT22;31474;45.332;10.230;2023-03-12T07:34:51;13.10;97.30
45765;DHT22;31474;45.332;10.230;2023-03-12T07:37:16;13.10;96.70
45765;DHT22;31474;45.332;10.230;2023-03-12T07:39:42;13.30;96.80
45765;DHT22;31474;45.332;10.230;2023-03-12T07:42:09;13.40;96.60
45765;DHT22;31474;45.332;10.230;2023-03-12T07:44:34;13.60;96.80
45765;DHT22;31474;45.332;10.230;2023-03-12T07:47:01;13.80;96.10
45765;DHT22;31474;45.332;10.230;2023-03-12T07:49:27;13.80;96.20
45765;DHT22;31474;45.332;10.230;2023-03-12T07:51:52;13.80;94.50
45765;DHT22;31474;45.332;10.230;2023-03-12T07:54:19;13.70;95.00
45765;DHT22;31474;45.332;10.230;2023-03-12T07:56:45;13.70;95.50
45765;DHT22;31474;45.332;10.230;2023-03-12T07:59:10;13.70;95.60
45765;DHT22;31474;45.332;10.230;2023-03-12T08:01:36;13.80;95.50
45765;DHT22;31474;45.332;10.230;2023-03-12T08:04:02;13.80;95.20
45765;DHT22;31474;45.332;10.230;2023-03-12T08:06:28;14.00;95.50
45765;DHT22;31474;45.332;10.230;2023-03-12T08:08:54;14.00;95.40
45765;DHT22;31474;45.332;10.230;2023-03-12T08:11:20;14.20;95.20
45765;DHT22;31474;45.332;10.230;2023-03-12T08:13:46;14.30;95.20
45765;DHT22;31474;45.332;10.230;2023-03-12T08:16:12;14.30;94.40
45765;DHT22;31474;45.332;10.230;2023-03-12T08:18:39;14.50;95.30
45765;DHT22;31474;45.332;10.230;2023-03-12T08:21:07;14.40;95.00
45765;DHT22;31474;45.332;10.230;2023-03-12T08:23:33;14.50;94.50
45765;DHT22;31474;45.332;10.230;2023-03-12T08:25:58;14.50;94.60
45765;DHT22;31474;45.332;10.230;2023-03-12T08:28:24;14.50;95.20
45765;DHT22;31474;45.332;10.230;2023-03-12T08:30:52;14.70;95.00
45765;DHT22;31474;45.332;10.230;2023-03-12T08:33:19;14.80;94.40
45765;DHT22;31474;45.332;10.230;2023-03-12T08:35:44;14.90;94.00
45765;DHT22;31474;45.332;10.230;2023-03-12T08:38:20;14.60;92.90
45765;DHT22;31474;45.332;10.230;2023-03-12T08:40:54;14.70;93.60
45765;DHT22;31474;45.332;10.230;2023-03-12T08:43:19;14.60;92.50
45765;DHT22;31474;45.332;10.230;2023-03-12T08:45:45;14.80;93.70
45765;DHT22;31474;45.332;10.230;2023-03-12T08:48:11;14.70;92.80
45765;DHT22;31474;45.332;10.230;2023-03-12T08:50:36;14.80;92.90
45765;DHT22;31474;45.332;10.230;2023-03-12T08:53:02;14.90;92.80
45765;DHT22;31474;45.332;10.230;2023-03-12T08:55:28;14.90;92.50
45765;DHT22;31474;45.332;10.230;2023-03-12T08:57:56;14.90;91.80
45765;DHT22;31474;45.332;10.230;2023-03-12T09:00:22;14.80;92.10
45765;DHT22;31474;45.332;10.230;2023-03-12T09:02:48;15.00;92.70
45765;DHT22;31474;45.332;10.230;2023-03-12T09:05:16;15.10;91.80
45765;DHT22;31474;45.332;10.230;2023-03-12T09:07:42;15.00;91.90
45765;DHT22;31474;45.332;10.230;2023-03-12T09:10:09;15.20;92.90
45765;DHT22;31474;45.332;10.230;2023-03-12T09:12:35;15.40;92.50
45765;DHT22;31474;45.332;10.230;2023-03-12T09:15:00;15.60;91.90
45765;DHT22;31474;45.332;10.230;2023-03-12T09:17:28;15.60;91.30
45765;DHT22;31474;45.332;10.230;2023-03-12T09:19:54;15.50;91.70
45765;DHT22;31474;45.332;10.230;2023-03-12T09:22:20;15.60;91.90
45765;DHT22;31474;45.332;10.230;2023-03-12T09:24:46;15.70;91.90
45765;DHT22;31474;45.332;10.230;2023-03-12T09:27:11;15.80;91.50
45765;DHT22;31474;45.332;10.230;2023-03-12T09:29:37;16.00;91.60
45765;DHT22;31474;45.332;10.230;2023-03-12T09:32:03;16.00;91.00
45765;DHT22;31474;45.332;10.230;2023-03-12T09:34:28;15.90;91.10
45765;DHT22;31474;45.332;10.230;2023-03-12T09:36:54;15.90;92.10
45765;DHT22;31474;45.332;10.230;2023-03-12T09:39:20;16.00;92.00
45765;DHT22;31474;45.332;10.230;2023-03-12T09:41:47;16.00;90.20
45765;DHT22;31474;45.332;10.230;2023-03-12T09:44:37;16.10;91.10
45765;DHT22;31474;45.332;10.230;2023-03-12T09:47:24;16.10;91.00
45765;DHT22;31474;45.332;10.230;2023-03-12T09:49:55;16.20;90.90
45765;DHT22;31474;45.332;10.230;2023-03-12T09:52:39;16.20;90.80
45765;DHT22;31474;45.332;10.230;2023-03-12T09:57:33;16.00;90.30
45765;DHT22;31474;45.332;10.230;2023-03-12T09:59:59;16.00;91.00
45765;DHT22;31474;45.332;10.230;2023-03-12T10:21:59;16.40;91.20
45765;DHT22;31474;45.332;10.230;2023-03-12T10:27:12;16.40;90.40
45765;DHT22;31474;45.332;10.230;2023-03-12T10:29:41;16.60;91.00
45765;DHT22;31474;45.332;10.230;2023-03-12T10:34:46;16.70;90.90
45765;DHT22;31474;45.332;10.230;2023-03-12T10:37:17;16.60;91.20
45765;DHT22;31474;45.332;10.230;2023-03-12T10:39:43;16.70;91.40
45765;DHT22;31474;45.332;10.230;2023-03-12T10:42:23;16.50;90.80
45765;DHT22;31474;45.332;10.230;2023-03-12T10:44:55;16.50;92.10
45765;DHT22;31474;45.332;10.230;2023-03-12T10:47:32;16.60;92.40
45765;DHT22;31474;45.332;10.230;2023-03-12T10:50:26;16.80;91.80
45765;DHT22;31474;45.332;10.230;2023-03-12T10:56:13;16.70;91.40
45765;DHT22;31474;45.332;10.230;2023-03-12T10:58:49;16.60;91.50
45765;DHT22;31474;45.332;10.230;2023-03-12T11:03:46;16.40;91.20
45765;DHT22;31474;45.332;10.230;2023-03-12T11:06:27;16.30;91.60
45765;DHT22;31474;45.332;10.230;2023-03-12T11:11:34;16.40;91.50
45765;DHT22;31474;45.332;10.230;2023-03-12T11:14:21;16.40;92.00
45765;DHT22;31474;45.332;10.230;2023-03-12T11:16:48;16.50;92.30
45765;DHT22;31474;45.332;10.230;2023-03-12T11:19:30;16.70;92.30
45765;DHT22;31474;45.332;10.230;2023-03-12T11:22:05;16.80;92.30
45765;DHT22;31474;45.332;10.230;2023-03-12T11:24:33;16.90;91.90
45765;DHT22;31474;45.332;10.230;2023-03-12T11:27:50;17.00;92.50
45765;DHT22;31474;45.332;10.230;2023-03-12T11:29:58;16.90;91.70
45765;DHT22;31474;45.332;10.230;2023-03-12T11:32:33;16.80;92.40
45765;DHT22;31474;45.332;10.230;2023-03-12T11:35:01;16.90;92.70
45765;DHT22;31474;45.332;10.230;2023-03-12T11:46:11;17.00;92.10
45765;DHT22;31474;45.332;10.230;2023-03-12T12:00:17;16.80;93.10
45765;DHT22;31474;45.332;10.230;2023-03-12T12:14:19;17.30;93.40
45765;DHT22;31474;45.332;10.230;2023-03-12T12:28:07;17.20;92.70
45765;DHT22;31474;45.332;10.230;2023-03-12T12:31:06;17.20;92.50
45765;DHT22;31474;45.332;10.230;2023-03-12T12:36:40;17.50;93.10
45765;DHT22;31474;45.332;10.230;2023-03-12T12:41:52;17.90;92.80
45765;DHT22;31474;45.332;10.230;2023-03-12T12:44:25;17.80;92.30
45765;DHT22;31474;45.332;10.230;2023-03-12T12:46:57;17.80;92.40
45765;DHT22;31474;45.332;10.230;2023-03-12T12:49:41;17.80;92.40
45765;DHT22;31474;45.332;10.230;2023-03-12T12:52:11;17.70;92.10
45765;DHT22;31474;45.332;10.230;2023-03-12T12:57:28;17.50;91.90
45765;DHT22;31474;45.332;10.230;2023-03-12T13:02:43;17.70;91.90
45765;DHT22;31474;45.332;10.230;2023-03-12T13:07:50;17.80;92.20
45765;DHT22;31474;45.332;10.230;2023-03-12T13:13:03;17.90;92.40
45765;DHT22;31474;45.332;10.230;2023-03-12T13:15:36;18.10;93.20
45765;DHT22;31474;45.332;10.230;2023-03-12T13:18:06;18.20;93.20
45765;DHT22;31474;45.332;10.230;2023-03-12T13:23:41;18.10;92.10
45765;DHT22;31474;45.332;10.230;2023-03-12T13:31:53;17.70;91.80
45765;DHT22;31474;45.332;10.230;2023-03-12T13:36:50;17.70;93.10
45765;DHT22;31474;45.332;10.230;2023-03-12T13:39:26;17.90;92.80
45765;DHT22;31474;45.332;10.230;2023-03-12T13:41:54;17.90;93.00
45765;DHT22;31474;45.332;10.230;2023-03-12T13:49:58;17.70;92.60
45765;DHT22;31474;45.332;10.230;2023-03-12T13:52:46;17.80;92.80
45765;DHT22;31474;45.332;10.230;2023-03-12T13:57:53;17.80;92.80
45765;DHT22;31474;45.332;10.230;2023-03-12T14:05:42;17.80;92.80
45765;DHT22;31474;45.332;10.230;2023-03-12T14:16:41;17.40;92.20
45765;DHT22;31474;45.332;10.230;2023-03-12T14:19:12;17.40;93.10
45765;DHT22;31474;45.332;10.230;2023-03-12T14:21:41;17.50;93.20
45765;DHT22;31474;45.332;10.230;2023-03-12T14:24:20;17.50;93.10
45765;DHT22;31474;45.332;10.230;2023-03-12T14:26:48;17.50;92.90
45765;DHT22;31474;45.332;10.230;2023-03-12T14:31:45;17.60;93.30
45765;DHT22;31474;45.332;10.230;2023-03-12T14:34:15;17.60;93.00
45765;DHT22;31474;45.332;10.230;2023-03-12T14:40:18;17.60;93.00
45765;DHT22;31474;45.332;10.230;2023-03-12T14:42:20;17.50;92.70
45765;DHT22;31474;45.332;10.230;2023-03-12T14:44:57;17.60;93.10
45765;DHT22;31474;45.332;10.230;2023-03-12T14:47:24;17.50;92.50
45765;DHT22;31474;45.332;10.230;2023-03-12T14:49:49;17.50;93.10
45765;DHT22;31474;45.332;10.230;2023-03-12T14:52:26;17.40;93.10
45765;DHT22;31474;45.332;10.230;2023-03-12T14:54:58;17.40;93.20
45765;DHT22;31474;45.332;10.230;2023-03-12T14:57:25;17.40;93.30
45765;DHT22;31474;45.332;10.230;2023-03-12T14:59:53;17.50;93.50
45765;DHT22;31474;45.332;10.230;2023-03-12T15:02:20;17.40;92.90
45765;DHT22;31474;45.332;10.230;2023-03-12T15:04:47;17.40;93.10
45765;DHT22;31474;45.332;10.230;2023-03-12T15:07:18;17.30;93.30
45765;DHT22;31474;45.332;10.230;2023-03-12T15:09:48;17.30;93.40
45765;DHT22;31474;45.332;10.230;2023-03-12T15:12:22;17.20;93.20
45765;DHT22;31474;45.332;10.230;2023-03-12T15:14:53;17.20;93.40
45765;DHT22;31474;45.332;10.230;2023-03-12T15:17:21;17.30;93.30
45765;DHT22;31474;45.332;10.230;2023-03-12T15:19:48;17.20;93.40
45765;DHT22;31474;45.332;10.230;2023-03-12T15:22:20;17.20;93.40
45765;DHT22;31474;45.332;10.230;2023-03-12T15:24:46;17.20;93.50
45765;DHT22;31474;45.332;10.230;2023-03-12T15:27:32;17.30;93.50
45765;DHT22;31474;45.332;10.230;2023-03-12T15:29:59;17.30;93.40
45765;DHT22;31474;45.332;10.230;2023-03-12T15:32:26;17.30;93.70
45765;DHT22;31474;45.332;10.230;2023-03-12T15:34:53;17.30;93.40
45765;DHT22;31474;45.332;10.230;2023-03-12T15:37:33;17.20;93.40
45765;DHT22;31474;45.332;10.230;2023-03-12T15:40:20;17.20;93.50
45765;DHT22;31474;45.332;10.230;2023-03-12T15:42:48;17.20;93.60
45765;DHT22;31474;45.332;10.230;2023-03-12T15:45:37;17.20;93.70
45765;DHT22;31474;45.332;10.230;2023-03-12T15:48:32;17.20;93.80
45765;DHT22;31474;45.332;10.230;2023-03-12T15:50:58;17.20;93.70
45765;DHT22;31474;45.332;10.230;2023-03-12T15:53:32;17.10;93.70
45765;DHT22;31474;45.332;10.230;2023-03-12T15:58:39;17.00;93.70
45765;DHT22;31474;45.332;10.230;2023-03-12T16:01:10;17.00;93.70
45765;DHT22;31474;45.332;10.230;2023-03-12T16:03:37;17.00;93.70
45765;DHT22;31474;45.332;10.230;2023-03-12T16:06:04;16.80;93.70
45765;DHT22;31474;45.332;10.230;2023-03-12T16:08:43;16.80;94.00
45765;DHT22;31474;45.332;10.230;2023-03-12T16:11:22;16.90;94.10
45765;DHT22;31474;45.332;10.230;2023-03-12T16:13:50;16.90;93.90
45765;DHT22;31474;45.332;10.230;2023-03-12T16:16:17;16.90;94.00
45765;DHT22;31474;45.332;10.230;2023-03-12T16:18:53;16.90;94.30
45765;DHT22;31474;45.332;10.230;2023-03-12T16:21:18;16.80;94.10
45765;DHT22;31474;45.332;10.230;2023-03-12T16:23:44;16.80;94.00
45765;DHT22;31474;45.332;10.230;2023-03-12T16:26:11;16.80;94.00
45765;DHT22;31474;45.332;10.230;2023-03-12T16:28:37;16.70;94.10
45765;DHT22;31474;45.332;10.230;2023-03-12T16:31:10;16.70;94.60
45765;DHT22;31474;45.332;10.230;2023-03-12T16:33:36;16.60;94.50
45765;DHT22;31474;45.332;10.230;2023-03-12T16:36:02;16.60;94.60
45765;DHT22;31474;45.332;10.230;2023-03-12T16:38:27;16.60;94.80
45765;DHT22;31474;45.332;10.230;2023-03-12T16:40:53;16.50;94.80
45765;DHT22;31474;45.332;10.230;2023-03-12T16:43:24;16.40;95.00
45765;DHT22;31474;45.332;10.230;2023-03-12T16:45:51;16.40;95.20
45765;DHT22;31474;45.332;10.230;2023-03-12T16:48:19;16.40;95.30
45765;DHT22;31474;45.332;10.230;2023-03-12T16:50:48;16.30;95.30
45765;DHT22;31474;45.332;10.230;2023-03-12T16:53:15;16.30;95.40
45765;DHT22;31474;45.332;10.230;2023-03-12T16:55:52;16.30;95.30
45765;DHT22;31474;45.332;10.230;2023-03-12T16:58:21;16.20;95.50
45765;DHT22;31474;45.332;10.230;2023-03-12T17:00:48;16.20;95.60
45765;DHT22;31474;45.332;10.230;2023-03-12T17:03:35;16.10;95.50
45765;DHT22;31474;45.332;10.230;2023-03-12T17:06:01;16.10;95.70
45765;DHT22;31474;45.332;10.230;2023-03-12T17:08:27;16.10;95.70
45765;DHT22;31474;45.332;10.230;2023-03-12T17:10:54;16.00;95.80
45765;DHT22;31474;45.332;10.230;2023-03-12T17:13:23;16.00;95.80
45765;DHT22;31474;45.332;10.230;2023-03-12T17:15:49;15.90;95.90
45765;DHT22;31474;45.332;10.230;2023-03-12T17:18:16;15.90;96.20
45765;DHT22;31474;45.332;10.230;2023-03-12T17:20:42;15.90;96.10
45765;DHT22;31474;45.332;10.230;2023-03-12T17:23:08;15.90;96.30
45765;DHT22;31474;45.332;10.230;2023-03-12T17:25:36;15.80;96.20
45765;DHT22;31474;45.332;10.230;2023-03-12T17:28:02;15.70;96.10
45765;DHT22;31474;45.332;10.230;2023-03-12T17:30:29;15.70;96.40
45765;DHT22;31474;45.332;10.230;2023-03-12T17:33:10;15.70;96.10
45765;DHT22;31474;45.332;10.230;2023-03-12T17:35:36;15.60;96.30
45765;DHT22;31474;45.332;10.230;2023-03-12T17:38:02;15.60;96.20
45765;DHT22;31474;45.332;10.230;2023-03-12T17:40:28;15.50;96.30
45765;DHT22;31474;45.332;10.230;2023-03-12T17:42:54;15.50;96.30
45765;DHT22;31474;45.332;10.230;2023-03-12T17:45:23;15.40;96.30
45765;DHT22;31474;45.332;10.230;2023-03-12T17:47:49;15.40;96.40
45765;DHT22;31474;45.332;10.230;2023-03-12T17:50:14;15.40;96.40